Date,TemperatureHighF,TemperatureAvgF,TemperatureLowF,DewpointHighF,DewpointAvgF,DewpointLowF,HumidityHigh,HumidityAvg,HumidityLow,PressureMaxIn,PressureMinIn,WindSpeedMaxMPH,WindSpeedAvgMPH,GustSpeedMaxMPH,PrecipitationSumIn
2013-1-1,36.5,33.5,29.3,18.0,16.6,15.0,61,50,43,29.72,29.14,9,2,13,0.00
2013-1-2,32.1,27.6,23.5,19.0,18.2,17.0,81,68,55,29.55,29.16,5,1,7,0.00
2013-1-3,33.2,30.8,22.9,17.0,14.6,11.0,66,51,45,29.65,29.56,9,3,11,0.00
2013-1-4,26.7,22.3,16.2,12.0,9.7,9.0,74,59,52,29.83,29.63,2,0,4,0.00
2013-1-5,24.6,20.6,18.1,13.0,11.6,9.0,74,68,61,29.84,29.40,3,0,3,0.00
2013-1-6,24.1,20.0,15.3,13.0,10.3,8.0,82,66,53,29.41,29.24,4,0,5,0.00
2013-1-7,19.7,14.1,5.2,12.0,8.3,3.0,90,78,71,29.52,29.17,2,0,3,0.00
2013-1-8,6.5,-1.2,-4.0,4.0,-4.7,-8.0,89,85,84,30.15,29.52,1,0,2,0.00
2013-1-9,11.0,4.1,-2.5,6.0,0.5,-6.0,87,84,77,30.22,29.94,3,0,5,0.00
2013-1-10,12.7,9.7,7.6,11.0,6.5,4.0,92,86,82,30.11,29.92,3,0,5,0.00
2013-1-11,18.7,13.8,11.2,15.0,10.2,-99.9,92,88,84,30.21,29.89,1,-10,3,0.00
2013-1-12,33.0,23.7,13.4,25.0,18.8,-99.9,93,84,70,30.21,29.73,6,-9,10,0.00
2013-1-13,39.3,34.7,30.7,33.0,28.6,-99.9,96,81,68,29.75,29.53,7,-9,10,0.14
2013-1-14,40.6,34.7,26.4,34.0,31.9,24.0,97,89,75,29.82,29.23,5,1,9,0.24
2013-1-15,26.0,13.4,10.2,24.0,10.5,8.0,90,88,85,30.23,29.83,6,1,9,0.00
2013-1-16,14.5,11.5,7.6,10.0,7.8,5.0,90,85,76,30.24,29.86,4,0,7,0.00
2013-1-17,13.2,2.8,-7.0,10.0,-2.1,-13.0,88,80,74,30.20,29.82,6,1,10,0.00
2013-1-18,2.8,-4.9,-10.6,-9.0,-13.2,-16.0,75,68,57,30.48,30.21,9,1,11,0.00
2013-1-19,9.6,6.5,0.5,-5.0,-7.5,-10.0,65,53,47,30.48,30.14,11,4,17,0.00
2013-1-20,10.6,8.1,3.5,7.0,3.3,-7.0,88,81,60,30.14,30.05,4,0,6,0.00
2013-1-21,8.4,6.2,3.5,6.0,1.7,-1.0,88,81,73,30.18,30.06,3,0,7,0.00
2013-1-22,11.8,8.5,5.8,5.0,2.1,0.0,79,75,71,30.06,29.78,7,1,10,0.00
2013-1-23,7.5,4.7,-0.1,1.0,-3.0,-10.0,77,70,63,29.78,29.65,9,2,13,0.00
2013-1-24,-0.3,-5.9,-9.7,-10.0,-16.0,-20.0,65,61,59,29.89,29.71,9,3,14,0.00
2013-1-25,-9.4,-15.5,-24.1,-19.0,-22.9,-29.0,78,69,62,30.07,29.90,3,0,7,0.00
2013-1-26,-19.3,-25.0,-31.3,-24.0,-30.0,-37.0,80,77,74,30.24,30.08,0,0,2,0.00
2013-1-27,-30.2,-33.3,-37.0,-35.0,-38.8,-43.0,76,73,71,30.69,30.24,1,0,2,0.00
2013-1-28,-3.9,-18.2,-36.2,-15.0,-25.3,-42.0,79,70,54,30.73,30.16,8,2,12,0.00
2013-1-29,-3.0,-6.9,-10.3,-12.0,-17.0,-19.0,77,62,50,30.15,29.95,11,2,14,0.00
2013-1-30,10.6,1.4,-7.2,5.0,-4.0,-12.0,82,78,74,30.01,29.75,2,0,3,0.00
2013-1-31,10.0,7.4,5.4,6.0,3.8,1.0,88,85,77,30.14,29.77,3,0,4,0.00
2013-2-1,16.4,10.0,5.7,9.0,5.2,3.0,90,81,68,30.20,29.92,7,1,9,0.00
2013-2-2,22.8,16.1,10.3,11.0,7.1,3.0,76,68,60,29.92,29.54,5,0,7,0.00
2013-2-3,16.9,13.5,10.8,11.0,8.3,7.0,87,79,72,29.55,29.35,2,0,3,0.00
2013-2-4,16.1,12.8,8.8,13.0,10.1,6.0,92,89,85,29.69,29.50,0,0,1,0.00
2013-2-5,14.6,7.4,2.5,12.0,4.8,-1.0,92,89,86,29.68,29.63,1,0,2,0.00
2013-2-6,8.4,3.5,-0.6,6.0,0.4,-4.0,89,86,85,29.76,29.63,1,0,1,0.00
2013-2-7,12.9,6.9,0.2,10.0,3.9,-3.0,90,87,84,29.73,29.35,2,0,2,0.00
2013-2-8,11.4,6.0,1.1,9.0,3.1,-2.0,90,87,84,29.87,29.37,0,0,1,0.00
2013-2-9,34.0,26.6,10.9,23.0,18.2,9.0,92,72,61,29.86,29.06,15,2,15,0.00
2013-2-10,38.2,27.8,10.2,27.0,20.2,8.0,91,74,63,29.49,28.98,5,1,13,0.02
2013-2-11,19.9,16.5,10.5,17.0,13.9,8.0,93,89,84,29.75,29.50,2,0,3,0.00
2013-2-12,16.5,12.8,8.5,13.0,10.3,6.0,92,89,86,29.83,29.75,2,0,2,0.00
2013-2-13,27.4,22.3,15.9,17.0,13.4,11.0,87,69,58,29.83,29.78,4,1,5,0.00
2013-2-14,30.0,27.2,24.0,16.0,11.6,9.0,72,52,43,29.78,29.36,10,3,13,0.00
2013-2-15,23.6,7.5,-3.5,18.0,3.4,-7.0,88,83,74,30.07,29.46,5,1,12,0.00
2013-2-16,2.7,-2.0,-6.5,-2.0,-6.3,-10.0,86,82,76,30.15,29.94,3,0,4,0.00
2013-2-17,1.5,-5.1,-10.3,-4.0,-9.8,-15.0,83,80,74,30.20,29.87,5,1,8,0.00
2013-2-18,-9.6,-13.7,-17.1,-15.0,-18.4,-22.0,82,79,73,30.32,30.20,4,1,8,0.00
2013-2-19,-1.2,-9.5,-18.9,-11.0,-17.0,-25.0,80,70,61,30.21,29.66,11,2,13,0.00
2013-2-20,4.4,-2.2,-6.3,-6.0,-10.3,-13.0,79,68,59,29.65,29.44,8,2,14,0.00
2013-2-21,0.1,-3.3,-6.0,-7.0,-9.5,-11.0,80,75,66,29.49,29.40,10,2,15,0.00
2013-2-22,-3.7,-7.8,-12.7,-10.0,-12.7,-17.0,84,79,73,29.68,29.42,2,0,6,0.00
2013-2-23,4.9,-2.2,-11.3,-3.0,-8.6,-16.0,79,74,65,29.60,29.38,2,0,3,0.00
2013-2-24,8.7,1.6,-4.3,-1.0,-4.5,-8.0,85,76,63,29.73,29.40,3,0,5,0.00
2013-2-25,29.5,15.1,0.6,14.0,6.7,-4.0,88,71,48,29.79,29.74,2,0,4,0.00
2013-2-26,28.6,22.2,15.5,11.0,7.8,5.0,67,54,42,29.79,29.49,7,2,7,0.00
2013-2-27,31.9,26.6,21.6,14.0,10.7,9.0,59,52,46,29.49,29.33,7,3,9,0.00
2013-2-28,34.7,26.8,19.4,13.0,9.8,8.0,63,49,35,29.47,29.38,4,0,5,0.00
2013-3-1,19.0,9.3,5.2,9.0,4.8,1.0,89,82,65,30.03,29.47,3,0,4,0.00
2013-3-2,19.7,11.7,4.3,13.0,7.4,1.0,89,83,73,30.18,30.03,3,0,3,0.00
2013-3-3,26.3,16.3,8.0,17.0,10.6,5.0,90,79,62,30.42,30.18,1,0,3,0.00
2013-3-4,32.5,22.3,12.8,16.0,12.0,8.0,83,66,50,30.47,30.29,1,0,3,0.01
2013-3-5,34.7,25.6,19.7,16.0,10.7,8.0,65,54,43,30.28,29.93,2,0,3,0.00
2013-3-6,22.7,18.3,13.3,10.0,6.2,4.0,73,60,52,29.93,29.87,3,0,4,0.00
2013-3-7,40.8,31.5,19.4,17.0,14.5,9.0,68,51,38,29.87,29.43,11,3,15,0.00
2013-3-8,43.7,39.0,33.3,23.0,19.3,15.0,56,46,40,29.61,29.48,6,2,10,0.02
2013-3-9,37.5,29.3,20.3,25.0,20.8,13.0,91,71,58,29.99,29.61,4,1,8,0.00
2013-3-10,26.7,21.0,14.2,24.0,15.7,8.0,93,80,65,30.30,30.00,6,1,9,0.00
2013-3-11,25.4,17.0,10.5,14.0,9.3,5.0,88,72,57,30.59,30.30,10,1,11,0.00
2013-3-12,24.0,15.6,8.6,5.0,-0.6,-10.0,73,51,25,30.60,30.36,6,1,9,0.00
2013-3-13,14.6,7.5,-4.5,-4.0,-9.8,-20.0,56,45,34,30.36,30.26,27,7,32,0.00
2013-3-14,14.0,3.7,-6.4,-9.0,-14.9,-22.0,49,42,34,30.26,30.19,18,8,24,0.00
2013-3-15,21.0,10.9,5.4,-8.0,-12.4,-15.0,42,35,24,30.21,29.97,13,6,17,0.00
2013-3-16,24.4,15.5,8.7,1.0,-4.8,-11.0,52,41,35,30.20,30.02,11,4,12,0.00
2013-3-17,17.7,10.7,4.5,0.0,-2.6,-5.0,68,56,45,30.30,30.16,3,0,5,0.00
2013-3-18,18.9,9.5,0.8,0.0,-3.1,-8.0,77,58,43,30.16,30.03,7,1,8,0.00
2013-3-19,16.2,8.6,3.1,-3.0,-6.3,-10.0,66,52,38,30.16,30.06,6,1,12,0.00
2013-3-20,8.9,1.7,-7.4,-1.0,-8.4,-14.0,77,63,55,30.06,29.95,5,1,7,0.00
2013-3-21,19.1,9.2,0.8,10.0,2.3,-3.0,88,75,50,30.14,30.02,4,1,8,0.00
2013-3-22,29.9,20.4,12.5,14.0,3.7,-2.0,73,49,40,30.05,29.69,6,2,11,0.00
2013-3-23,20.2,2.5,-5.4,15.0,-6.5,-13.0,85,67,48,30.08,29.71,6,2,12,0.00
2013-3-24,13.5,4.5,-5.0,4.0,-5.4,-13.0,85,65,46,30.06,29.78,4,1,6,0.00
2013-3-25,8.2,3.4,-0.7,2.0,-1.3,-5.0,86,81,72,29.79,29.65,6,1,12,0.00
2013-3-26,4.7,-1.8,-8.4,-6.0,-10.4,-15.0,81,68,51,30.22,29.79,8,2,11,0.00
2013-3-27,9.4,-1.6,-13.6,-7.0,-11.8,-18.0,82,63,47,30.30,30.17,6,1,9,0.00
2013-3-28,30.6,18.4,2.9,9.0,0.5,-7.0,63,47,34,30.17,29.91,4,1,7,0.00
2013-3-29,42.7,33.2,25.5,17.0,12.4,8.0,49,43,33,29.91,29.85,5,1,6,0.05
2013-3-30,40.1,29.5,17.9,18.0,14.2,9.0,81,54,38,30.19,29.90,4,0,6,0.00
2013-3-31,38.7,31.8,25.6,27.0,21.5,15.0,87,66,55,30.24,30.13,2,0,6,0.00
2013-4-1,37.0,30.3,25.4,26.0,22.0,15.0,94,73,52,30.13,30.05,10,2,13,0.01
2013-4-2,35.2,25.3,16.3,17.0,13.3,10.0,80,62,46,30.20,30.08,5,1,9,0.00
2013-4-3,29.0,21.4,16.1,10.0,4.8,-3.0,67,50,34,30.48,30.21,12,4,18,0.00
2013-4-4,26.7,18.9,12.7,-1.0,-3.5,-6.0,50,38,26,30.49,30.10,14,8,22,0.00
2013-4-5,14.8,10.3,-0.7,-1.0,-8.3,-12.0,58,44,35,30.09,29.75,19,8,27,0.00
2013-4-6,18.4,7.5,-0.8,-3.0,-8.6,-13.0,59,48,37,29.75,29.63,11,3,15,0.00
2013-4-7,8.3,4.8,1.5,2.0,-1.5,-9.0,86,76,52,29.93,29.66,4,1,8,0.00
2013-4-8,14.9,5.8,-1.7,8.0,1.2,-5.0,87,81,68,29.95,29.49,4,1,5,0.00
2013-4-9,12.5,7.8,5.0,7.0,4.1,1.0,87,84,75,29.48,29.16,6,1,10,0.00
2013-4-10,16.6,6.8,-0.8,3.0,-1.9,-8.0,83,68,51,29.97,29.45,6,1,12,0.00
2013-4-11,14.6,4.6,-6.1,-1.0,-5.0,-11.0,81,66,47,30.27,29.98,6,1,7,0.00
2013-4-12,24.0,12.6,0.3,5.0,0.2,-4.0,85,60,40,30.37,30.27,6,1,7,0.01
2013-4-13,27.8,16.9,3.8,5.0,0.1,-4.0,70,49,36,30.49,30.37,5,1,8,0.00
2013-4-14,24.7,18.3,9.6,19.0,8.3,-1.0,85,66,47,30.57,30.49,5,1,7,0.00
2013-4-15,28.2,22.9,19.0,14.0,5.9,3.0,77,49,35,30.55,30.46,15,6,19,0.00
2013-4-16,27.6,21.0,14.1,14.0,6.3,2.0,74,54,42,30.46,30.26,10,3,17,0.00
2013-4-17,29.2,22.9,15.1,10.0,7.1,5.0,65,52,42,30.40,30.26,14,4,20,0.00
2013-4-18,30.5,23.4,16.1,7.0,3.5,-1.0,53,43,32,30.44,30.39,14,4,16,0.00
2013-4-19,39.7,29.1,17.4,14.0,6.2,-2.0,59,40,19,30.49,30.41,8,3,13,0.00
2013-4-20,44.4,35.0,25.4,15.0,8.6,2.0,50,34,24,30.41,30.27,7,1,7,0.00
2013-4-21,46.1,34.2,22.1,16.0,10.9,6.0,60,40,21,30.36,30.30,6,1,7,0.00
2013-4-22,47.3,36.2,21.5,17.0,12.1,7.0,61,38,26,30.46,30.36,6,1,8,0.00
2013-4-23,48.0,38.1,27.5,20.0,15.0,11.0,53,40,27,30.40,30.18,8,2,14,0.00
2013-4-24,36.5,31.8,27.4,29.0,24.9,14.0,95,77,41,30.17,29.97,9,3,19,0.05
2013-4-25,33.7,25.6,17.5,18.0,2.2,-6.0,67,38,28,30.10,29.99,7,2,11,0.00
2013-4-26,30.8,22.9,14.7,22.0,11.2,0.0,92,63,40,30.00,29.61,5,1,8,0.00
2013-4-27,29.2,23.5,16.5,20.0,6.5,-7.0,93,53,26,30.15,29.67,11,3,19,0.00
2013-4-28,36.5,23.3,9.4,16.0,2.8,-7.0,55,42,31,30.18,30.10,6,2,11,0.00
2013-4-29,31.5,27.1,20.3,26.0,19.0,12.0,94,72,57,30.14,30.07,6,1,13,0.00
2013-4-30,33.9,28.6,24.1,29.0,25.9,21.0,95,89,74,30.07,29.87,5,1,10,0.07
2013-5-1,34.5,25.7,19.9,25.0,19.4,10.0,92,78,59,29.87,29.67,9,2,11,0.12
2013-5-2,39.7,27.6,17.2,22.0,15.8,9.0,80,62,44,29.92,29.72,5,1,8,0.04
2013-5-3,36.8,30.3,24.8,29.0,24.3,18.0,91,79,60,29.94,29.84,5,1,9,0.00
2013-5-4,36.9,26.7,18.7,24.0,19.6,13.0,91,76,49,29.99,29.89,4,1,7,0.01
2013-5-5,40.7,31.5,22.3,20.0,12.9,-99.9,80,50,31,30.13,29.99,6,-9,15,0.00
2013-5-6,44.3,34.1,24.0,19.0,12.9,8.0,55,43,27,30.20,30.11,7,2,17,0.00
2013-5-7,45.5,36.8,27.7,21.0,15.2,-99.9,59,43,27,30.25,30.20,10,-9,14,0.00
2013-5-8,49.8,40.3,30.6,23.0,18.5,15.0,56,43,27,30.33,30.23,10,2,13,0.00
2013-5-9,57.3,46.2,33.7,25.0,21.1,18.0,63,40,23,30.36,30.19,6,1,10,0.00
2013-5-10,57.1,49.8,42.2,27.0,22.9,18.0,47,36,25,30.21,29.93,7,1,9,0.00
2013-5-11,57.9,50.3,41.8,29.0,24.4,18.0,53,37,28,29.92,29.64,4,1,7,0.00
2013-5-12,52.1,44.2,35.1,33.0,28.4,23.0,70,55,37,29.65,29.45,14,2,14,0.00
2013-5-13,34.8,27.5,18.5,19.0,7.2,0.0,53,43,35,29.65,29.48,8,3,12,0.00
2013-5-14,42.3,31.8,21.5,16.0,12.0,8.0,65,45,30,29.68,29.62,5,1,8,0.00
2013-5-15,48.1,37.8,27.1,19.0,14.5,9.0,50,39,28,29.70,29.62,10,2,14,0.00
2013-5-16,50.5,42.1,32.5,28.0,22.0,17.0,61,46,29,29.65,29.40,7,2,15,0.00
2013-5-17,41.2,33.2,23.8,31.0,28.3,22.0,94,83,60,29.64,29.36,9,2,12,0.04
2013-5-18,33.2,25.1,18.9,21.0,10.2,6.0,91,56,33,30.18,29.65,11,4,15,0.00
2013-5-19,44.8,33.1,17.8,16.0,10.1,5.0,65,40,28,30.57,30.20,7,2,14,0.00
2013-5-20,53.1,42.5,30.4,18.0,14.5,12.0,52,34,21,30.63,30.41,8,2,11,0.00
2013-5-21,60.6,49.6,37.0,21.0,16.4,13.0,43,28,16,30.43,30.11,7,2,12,0.00
2013-5-22,65.4,55.0,44.0,28.0,22.6,-99.9,44,30,20,30.11,29.93,6,-9,12,0.00
2013-5-23,62.0,53.3,44.3,40.0,33.3,26.0,59,47,39,30.08,29.97,5,1,10,0.00
2013-5-24,68.7,58.1,46.9,42.0,37.6,31.0,71,49,30,30.10,29.94,10,2,10,0.00
2013-5-25,75.0,64.8,54.6,35.0,30.1,25.0,39,28,16,29.95,29.77,9,2,11,0.00
2013-5-26,77.8,66.4,52.8,37.0,32.1,28.0,40,29,19,29.82,29.73,9,1,9,0.00
2013-5-27,78.1,69.0,58.7,40.0,37.2,34.0,43,32,24,29.82,29.70,7,2,11,0.00
2013-5-28,80.5,70.0,57.7,40.0,36.2,32.0,45,30,21,29.73,29.63,6,2,8,0.00
2013-5-29,80.0,71.9,61.6,37.0,33.1,26.0,36,25,15,29.65,29.60,11,2,11,0.00
2013-5-30,83.0,70.9,60.1,42.0,36.1,28.0,40,29,14,29.79,29.65,7,1,9,0.00
2013-5-31,81.3,69.9,57.0,49.0,38.4,23.0,63,35,12,29.91,29.80,6,1,14,0.00
2013-6-1,76.9,67.7,58.4,41.0,35.7,28.0,44,31,26,30.03,29.92,12,2,13,0.00
2013-6-2,78.5,67.2,53.5,46.0,40.5,34.0,64,40,25,30.01,29.81,5,1,12,0.00
2013-6-3,62.1,55.4,49.8,49.0,46.4,44.0,91,72,57,29.86,29.62,5,1,12,0.01
2013-6-4,59.9,52.3,48.3,48.0,46.0,43.0,94,80,56,29.61,29.52,5,1,11,0.07
2013-6-5,52.9,48.6,45.8,50.0,46.6,44.0,95,92,86,29.85,29.58,7,1,16,0.31
2013-6-6,63.0,55.1,45.6,50.0,45.9,42.0,96,73,48,29.87,29.77,6,1,9,0.01
2013-6-7,68.5,59.4,50.9,48.0,43.9,40.0,78,58,37,29.90,29.79,4,0,8,0.03
2013-6-8,71.3,63.2,55.0,49.0,43.1,40.0,65,49,33,30.07,29.90,4,1,12,0.00
2013-6-9,64.3,57.4,49.5,47.0,41.7,38.0,74,57,43,30.18,30.07,6,2,11,0.00
2013-6-10,58.4,51.3,46.5,45.0,42.4,40.0,93,73,54,30.24,30.19,7,2,11,0.00
2013-6-11,67.1,55.3,44.3,48.0,42.8,36.0,85,64,38,30.25,30.10,8,1,13,0.06
2013-6-12,69.2,61.1,50.2,37.0,33.1,30.0,52,36,25,30.12,30.03,9,3,13,0.00
2013-6-13,76.1,65.7,54.0,40.0,33.8,26.0,51,33,17,30.10,30.03,9,2,11,0.00
2013-6-14,82.0,71.9,58.7,49.0,37.6,27.0,51,30,15,30.13,30.06,5,1,8,0.00
2013-6-15,84.2,71.6,58.8,48.0,40.6,30.0,48,33,24,30.20,30.11,3,1,7,0.00
2013-6-16,87.2,77.5,67.7,56.0,50.4,44.0,51,39,31,30.19,30.09,5,1,8,0.00
2013-6-17,82.2,75.8,68.1,53.0,40.2,28.0,53,30,14,30.16,30.05,13,3,16,0.00
2013-6-18,84.6,74.8,64.8,44.0,40.3,38.0,37,30,20,30.06,29.83,9,4,12,0.00
2013-6-19,84.9,77.2,69.4,44.0,41.4,39.0,36,28,20,29.85,29.74,13,3,14,0.00
2013-6-20,85.0,75.4,66.2,48.0,42.8,39.0,49,32,20,29.86,29.72,3,1,8,0.00
2013-6-21,74.4,64.6,57.9,56.0,50.0,41.0,90,61,31,29.85,29.73,5,1,9,0.03
2013-6-22,75.3,64.6,53.6,49.0,43.7,39.0,75,50,29,29.85,29.67,5,1,9,0.00
2013-6-23,80.9,71.6,58.7,48.0,42.8,37.0,49,36,23,29.67,29.54,6,1,10,0.00
2013-6-24,84.5,75.9,62.2,52.0,46.0,41.0,52,36,22,29.60,29.54,7,2,11,0.00
2013-6-25,89.4,79.0,66.9,56.0,51.5,48.0,57,40,25,29.61,29.55,11,3,17,0.00
2013-6-26,92.3,79.9,67.2,54.0,52.1,51.0,57,40,25,29.64,29.59,8,1,10,0.00
2013-6-27,80.9,72.4,65.4,61.0,56.9,51.0,81,60,41,29.92,29.64,7,1,12,0.00
2013-6-28,79.4,71.1,63.9,58.0,53.5,49.0,72,55,37,29.99,29.92,4,1,8,0.00
2013-6-29,76.7,68.5,60.5,58.0,55.5,52.0,83,64,45,29.95,29.85,3,1,4,0.00
2013-6-30,83.7,73.5,66.4,56.0,52.3,46.0,59,48,36,29.85,29.57,5,2,10,0.00
2013-7-1,78.5,66.6,57.6,51.0,47.5,43.0,79,52,32,29.58,29.39,6,1,13,0.01
2013-7-2,70.8,61.7,52.8,46.0,41.9,39.0,71,50,31,29.67,29.47,5,1,13,0.00
2013-7-3,68.9,59.2,49.1,47.0,42.6,40.0,82,56,35,29.89,29.70,5,1,8,0.00
2013-7-4,69.7,59.0,48.4,46.0,40.4,36.0,88,52,30,29.98,29.85,6,1,12,0.01
2013-7-5,65.5,55.7,45.5,48.0,44.2,41.0,97,69,42,30.03,29.94,5,1,9,0.05
2013-7-6,74.2,62.2,53.3,45.0,42.7,41.0,66,51,33,29.95,29.71,5,1,7,0.00
2013-7-7,71.6,63.5,55.1,49.0,43.1,39.0,70,48,34,29.71,29.48,12,2,14,0.00
2013-7-8,61.4,54.8,51.3,54.0,48.6,44.0,96,80,64,29.69,29.50,4,1,5,0.25
2013-7-9,61.8,55.0,48.9,52.0,48.7,46.0,97,80,61,29.96,29.69,6,1,13,0.01
2013-7-10,56.7,52.1,48.7,50.0,48.5,47.0,97,88,73,30.03,29.95,5,1,8,0.23
2013-7-11,65.2,57.8,49.6,51.0,48.6,46.0,96,74,53,30.06,30.02,6,1,11,0.00
2013-7-12,77.0,66.3,56.1,45.0,41.1,35.0,63,43,23,30.04,29.93,8,3,12,0.00
2013-7-13,82.7,72.1,57.8,47.0,41.5,39.0,51,35,22,29.98,29.93,9,1,10,0.00
2013-7-14,87.9,75.2,60.9,53.0,46.3,40.0,52,37,23,30.06,29.96,7,1,13,0.00
2013-7-15,80.7,71.2,64.2,55.0,50.6,48.0,63,49,36,30.13,30.03,6,1,9,0.00
2013-7-16,65.2,62.1,59.0,54.0,51.9,48.0,79,70,60,30.12,30.06,7,1,9,0.00
2013-7-17,70.6,61.6,55.4,53.0,50.3,48.0,84,68,45,30.07,30.01,5,1,10,0.00
2013-7-18,70.2,61.7,55.7,56.0,50.4,47.0,96,69,46,30.11,30.00,5,0,7,0.57
2013-7-19,58.7,56.3,53.1,57.0,54.9,52.0,98,95,89,30.08,30.02,8,2,15,0.10
2013-7-20,62.3,54.5,50.9,54.0,51.2,50.0,98,89,69,30.08,30.05,9,3,14,0.08
2013-7-21,65.6,57.7,51.2,52.0,50.0,47.0,92,76,57,30.14,30.07,6,1,10,0.00
2013-7-22,72.2,61.6,49.4,52.0,49.9,47.0,90,67,45,30.18,30.08,3,1,8,0.00
2013-7-23,77.9,66.1,56.7,56.0,52.8,50.0,84,64,41,30.09,29.98,5,1,12,0.00
2013-7-24,73.1,64.3,58.2,60.0,55.9,53.0,85,74,57,29.99,29.91,7,1,11,0.00
2013-7-25,73.6,59.8,57.2,57.0,36.5,-99.9,82,53,35,30.02,29.93,5,-83,9,0.00
2013-7-26,72.7,57.7,53.4,54.0,35.9,-99.9,84,57,44,30.14,30.02,8,-93,15,0.00
2013-7-27,79.3,62.8,58.5,57.0,40.2,-99.9,83,56,45,30.21,30.15,5,-93,11,0.00
2013-7-28,86.2,61.4,62.6,58.0,22.4,-99.9,67,36,30,30.17,29.99,9,-201,11,0.00
2013-7-29,78.0,57.3,63.3,56.0,24.7,-99.9,71,45,39,30.07,30.00,6,-183,13,0.00
2013-7-30,74.3,56.7,57.7,54.0,28.8,-99.9,79,50,43,30.15,30.07,10,-148,12,0.00
2013-7-31,80.2,57.7,54.1,54.0,25.7,-99.9,80,45,33,30.13,29.98,6,-160,10,0.00
2013-8-1,84.1,51.6,63.6,54.0,1.3,-99.9,64,27,29,29.99,29.76,4,-317,7,0.00
2013-8-2,83.6,49.3,68.7,47.0,-7.1,-99.9,45,21,24,29.79,29.65,4,-357,8,0.00
2013-8-3,84.3,57.7,65.8,47.0,15.0,-99.9,47,29,25,29.66,29.58,9,-198,11,0.00
2013-8-4,74.9,64.8,57.1,49.0,45.2,42.0,66,50,35,29.86,29.66,5,1,13,0.00
2013-8-5,75.4,63.2,51.5,53.0,47.4,43.0,88,60,33,29.90,29.83,4,1,8,0.01
2013-8-6,79.7,69.3,55.5,48.0,43.0,39.0,61,40,24,29.91,29.76,10,2,14,0.00
2013-8-7,83.6,72.7,63.1,49.0,44.7,41.0,49,38,24,29.78,29.56,9,2,13,0.00
2013-8-8,80.3,70.5,60.6,47.0,42.8,39.0,58,39,24,29.62,29.56,7,1,9,0.00
2013-8-9,70.6,64.1,57.7,50.0,44.2,41.0,72,49,41,29.65,29.59,4,1,7,0.00
2013-8-10,67.5,60.2,54.8,54.0,47.1,44.0,84,63,47,29.95,29.65,3,1,7,0.01
2013-8-11,73.3,63.1,50.5,50.0,46.9,44.0,82,58,37,30.02,29.91,3,0,7,0.00
2013-8-12,75.1,64.3,53.7,57.0,53.2,48.0,91,69,51,30.01,29.93,5,1,8,0.00
2013-8-13,80.6,66.4,54.6,58.0,55.5,52.0,93,70,46,29.94,29.78,3,0,5,0.00
2013-8-14,67.8,62.5,57.2,56.0,53.5,51.0,89,73,61,29.85,29.76,5,1,9,0.00
2013-8-15,64.6,58.1,53.7,57.0,52.6,49.0,95,82,68,29.82,29.66,2,0,7,0.29
2013-8-16,67.4,58.2,51.4,57.0,53.5,51.0,98,85,61,29.68,29.60,4,0,6,0.00
2013-8-17,73.1,61.0,50.8,55.0,51.5,48.0,92,73,44,29.61,29.46,4,1,6,0.00
2013-8-18,69.4,60.3,51.4,54.0,50.5,47.0,90,71,47,29.51,29.45,4,1,7,0.00
2013-8-19,65.0,57.4,51.0,52.0,48.6,39.0,92,74,39,29.61,29.51,6,1,8,0.01
2013-8-20,56.0,49.8,46.8,50.0,48.2,46.0,98,94,78,29.76,29.61,4,1,8,0.70
2013-8-21,61.8,52.0,45.2,49.0,44.1,38.0,98,77,47,29.80,29.69,4,1,6,0.00
2013-8-22,64.1,53.9,45.0,51.0,44.3,37.0,95,71,54,29.70,29.55,2,0,8,0.03
2013-8-23,54.0,50.8,46.6,52.0,49.0,43.0,98,94,81,29.68,29.49,5,1,11,0.59
2013-8-24,58.7,49.0,43.4,43.0,38.0,33.0,87,68,45,29.91,29.68,6,1,9,0.00
2013-8-25,59.8,49.0,35.8,35.0,31.6,28.0,80,54,33,29.92,29.74,8,2,12,0.00
2013-8-26,61.7,50.8,39.1,35.0,32.4,29.0,69,51,34,29.82,29.75,9,2,10,0.00
2013-8-27,62.4,51.5,41.9,44.0,37.1,31.0,71,59,46,29.79,29.63,4,1,7,0.00
2013-8-28,56.4,50.9,46.4,47.0,44.3,41.0,95,79,59,29.69,29.63,3,1,9,0.03
2013-8-29,52.1,49.3,46.7,48.0,45.9,43.0,97,88,74,29.84,29.64,4,0,5,0.12
2013-8-30,53.4,48.4,42.1,48.0,43.0,35.0,97,83,56,29.95,29.84,4,1,9,0.03
2013-8-31,49.5,42.5,37.5,34.0,28.5,20.0,76,59,31,29.98,29.91,4,0,6,0.00
2013-9-1,49.4,44.0,38.8,41.0,32.2,24.0,87,64,50,29.91,29.67,4,1,8,0.01
2013-9-2,57.6,50.6,44.3,54.0,47.4,41.0,96,89,75,29.67,29.37,5,1,6,0.30
2013-9-3,66.1,57.1,51.1,53.0,48.6,46.0,92,74,54,29.41,29.17,9,1,13,0.10
2013-9-4,57.2,50.8,46.7,51.0,47.4,43.0,96,88,77,29.64,29.31,5,1,8,0.10
2013-9-5,56.7,48.6,41.1,47.0,43.6,40.0,98,84,66,29.95,29.65,4,1,10,0.00
2013-9-6,54.0,48.3,42.0,46.0,42.1,39.0,89,80,61,29.98,29.46,9,2,12,0.04
2013-9-7,53.7,48.7,43.8,51.0,46.5,43.0,98,92,82,29.66,29.46,2,0,6,0.02
2013-9-8,52.5,49.2,45.0,49.0,47.4,45.0,98,93,82,29.76,29.46,4,0,9,0.26
2013-9-9,59.3,51.4,44.2,48.0,44.9,41.0,99,80,59,29.80,29.66,11,2,11,0.01
2013-9-10,65.0,57.2,49.1,46.0,42.5,40.0,73,59,44,29.67,29.63,5,1,8,0.00
2013-9-11,56.1,49.8,46.1,48.0,44.9,42.0,98,84,63,29.77,29.54,7,1,14,0.57
2013-9-12,57.6,48.5,39.5,48.0,43.9,39.0,99,85,64,29.93,29.78,5,1,13,0.01
2013-9-13,49.7,46.9,43.8,46.0,43.9,41.0,94,89,77,29.93,29.83,2,0,3,0.03
2013-9-14,52.5,45.9,38.9,45.0,41.3,34.0,97,85,56,30.06,29.93,4,1,8,0.09
2013-9-15,51.8,42.6,32.8,37.0,31.9,28.0,91,68,44,30.11,29.97,7,1,11,0.00
2013-9-16,51.2,42.5,35.5,29.0,26.7,24.0,72,55,40,29.96,29.69,16,4,17,0.00
2013-9-17,40.2,35.0,29.6,26.0,23.5,21.0,77,63,54,29.69,29.63,10,3,16,0.00
2013-9-18,32.9,30.9,27.8,30.0,28.3,26.0,95,90,78,29.73,29.66,2,0,4,0.02
2013-9-19,36.5,31.4,27.4,30.0,27.4,26.0,94,85,72,29.72,29.59,3,0,6,0.01
2013-9-20,33.8,29.0,24.0,28.0,25.3,23.0,95,86,76,29.59,29.21,3,0,6,0.00
2013-9-21,39.0,31.9,27.7,24.0,20.6,18.0,79,64,49,29.23,29.13,7,2,9,0.01
2013-9-22,31.2,28.8,26.4,28.0,24.7,20.0,95,84,71,29.52,29.23,5,1,6,0.00
2013-9-23,36.2,28.8,23.3,28.0,24.5,22.0,95,84,62,29.88,29.52,2,0,5,0.06
2013-9-24,37.5,32.6,27.0,25.0,23.3,21.0,87,69,56,30.03,29.75,12,2,13,0.00
2013-9-25,53.5,45.3,37.7,37.0,32.0,24.0,83,60,48,29.75,29.39,6,2,9,0.01
2013-9-26,44.3,39.9,34.6,40.0,36.4,33.0,96,87,77,29.62,29.32,3,0,6,0.03
2013-9-27,54.4,47.1,38.6,37.0,34.4,33.0,79,62,47,29.32,29.15,9,2,11,0.00
2013-9-28,46.3,39.6,36.3,38.0,34.6,32.0,92,82,67,29.33,29.23,5,0,8,0.03
2013-9-29,45.2,39.4,37.0,38.0,33.4,29.0,93,80,62,29.61,29.33,8,2,12,0.01
2013-9-30,37.9,35.3,32.0,29.0,27.7,26.0,80,74,68,29.83,29.62,6,1,9,0.00
2013-10-1,36.1,32.0,29.6,32.0,30.0,27.0,96,92,82,29.93,29.83,0,0,4,0.01
2013-10-2,44.7,38.4,32.3,34.0,31.9,30.0,92,78,64,29.93,29.83,4,0,6,0.00
2013-10-3,48.8,43.0,36.4,34.0,32.1,30.0,79,66,55,29.84,29.59,5,1,8,0.00
2013-10-4,40.5,35.4,29.9,34.0,31.0,28.0,96,84,73,29.82,29.57,4,0,5,0.00
2013-10-5,41.8,34.2,29.3,33.0,31.0,28.0,97,88,71,29.83,29.67,5,1,7,0.00
2013-10-6,42.1,37.0,31.7,33.0,30.2,28.0,94,77,67,29.69,29.64,3,0,6,0.00
2013-10-7,33.7,31.3,30.4,32.0,30.4,30.0,97,96,88,29.85,29.69,6,1,8,0.00
2013-10-8,46.6,41.7,33.9,34.0,30.4,26.0,87,65,56,29.71,28.96,11,3,16,0.00
2013-10-9,39.2,34.4,31.8,35.0,32.5,31.0,96,93,79,29.66,28.97,9,3,17,0.06
2013-10-10,36.3,32.3,27.1,31.0,28.4,25.0,96,86,72,29.70,29.62,5,1,8,0.00
2013-10-11,43.6,38.2,33.9,34.0,30.4,28.0,87,74,62,29.83,29.68,4,1,6,0.01
2013-10-12,51.0,45.1,39.9,34.0,31.6,30.0,71,60,50,29.79,29.67,7,3,12,0.00
2013-10-13,48.1,45.2,36.1,36.0,30.7,29.0,95,58,50,29.66,29.37,9,3,14,0.07
2013-10-14,42.3,37.6,34.2,37.0,35.0,33.0,97,90,78,29.91,29.54,4,0,4,0.01
2013-10-15,46.9,42.7,37.9,38.0,33.8,30.0,86,71,59,29.92,29.80,4,1,6,0.04
2013-10-16,52.8,49.1,42.9,41.0,37.8,35.0,85,66,53,30.05,29.87,5,1,7,0.00
2013-10-17,56.7,51.7,45.6,43.0,37.5,34.0,74,59,50,29.95,29.65,8,2,10,0.01
2013-10-18,48.0,46.3,44.0,36.0,32.1,30.0,69,58,51,29.66,29.54,8,2,8,0.01
2013-10-19,53.3,45.8,38.2,35.0,31.1,26.0,83,58,45,29.54,29.28,11,4,16,0.00
2013-10-20,44.4,41.4,37.7,33.0,31.0,29.0,84,67,58,29.86,29.55,6,1,7,0.00
2013-10-21,39.7,35.8,32.0,32.0,27.9,26.0,81,73,66,30.08,29.86,3,1,3,0.00
2013-10-22,37.8,33.7,29.1,27.0,24.7,24.0,82,70,58,30.17,30.07,4,1,5,0.00
2013-10-23,31.2,27.6,23.2,26.0,23.6,22.0,94,85,78,30.14,29.87,4,0,4,0.00
2013-10-24,37.9,29.4,19.6,25.0,21.3,18.0,95,75,49,29.97,29.69,7,2,11,0.00
2013-10-25,41.7,35.6,24.3,26.0,23.9,21.0,88,64,53,30.13,29.71,4,1,7,0.00
2013-10-26,37.7,28.7,21.9,27.0,23.3,20.0,93,81,60,30.50,30.14,7,1,10,0.00
2013-10-27,44.7,41.6,37.6,36.0,25.0,18.0,89,53,39,30.35,29.64,10,3,14,0.06
2013-10-28,55.7,45.9,36.8,39.0,36.7,34.0,93,72,50,29.62,28.99,9,3,12,0.01
2013-10-29,37.7,33.5,30.8,36.0,32.2,29.0,96,94,90,29.49,29.22,6,1,12,0.13
2013-10-30,35.7,31.9,28.5,30.0,27.8,26.0,96,85,75,29.46,29.18,6,0,6,0.00
2013-10-31,28.6,25.5,23.4,26.0,23.8,22.0,95,93,88,29.68,29.24,0,0,2,0.00
2013-11-1,25.3,23.6,22.9,24.0,22.3,21.0,95,94,91,30.09,29.68,3,0,4,0.00
2013-11-2,27.8,24.4,20.2,24.0,22.0,18.0,95,91,84,30.09,29.80,2,0,2,0.00
2013-11-3,34.5,30.4,25.1,26.0,23.6,22.0,90,76,65,29.82,29.59,3,1,5,0.00
2013-11-4,32.4,27.7,22.1,23.0,21.3,18.0,88,77,69,29.59,29.42,1,0,3,0.00
2013-11-5,23.8,20.2,16.4,20.0,17.3,14.0,92,88,80,30.20,29.50,8,1,13,0.00
2013-11-6,16.2,13.8,10.8,14.0,9.9,6.0,92,85,71,30.32,30.12,12,2,13,0.00
2013-11-7,20.4,15.0,9.9,6.0,4.7,3.0,74,64,53,30.11,29.91,13,4,15,0.00
2013-11-8,15.0,9.0,2.2,13.0,5.2,-1.0,91,85,72,30.23,29.99,6,1,6,0.00
2013-11-9,21.3,18.5,15.2,19.0,16.4,13.0,93,91,88,30.13,29.74,2,0,4,0.00
2013-11-10,28.1,25.1,20.8,27.0,23.7,19.0,96,94,91,29.90,29.74,0,0,2,0.00
2013-11-11,22.7,14.3,5.8,22.0,12.4,3.0,95,92,89,30.31,29.90,0,0,0,0.00
2013-11-12,11.5,8.6,5.0,9.0,5.9,2.0,90,88,82,30.32,30.07,0,0,0,0.00
2013-11-13,39.1,17.5,11.2,37.0,13.1,-99.9,98,88,81,30.07,29.61,18,-20,27,0.07
2013-11-14,39.4,27.6,16.3,34.0,22.2,-99.9,95,85,79,30.04,29.59,18,-14,33,0.00
2013-11-15,16.4,10.9,8.8,11.0,8.0,6.0,91,88,80,30.12,30.04,6,1,15,0.00
2013-11-16,13.2,8.5,1.8,11.0,6.0,-1.0,91,89,87,30.36,30.08,3,0,5,0.00
2013-11-17,1.9,-0.8,-3.8,-1.0,-5.0,-99.9,88,85,84,30.45,30.36,0,-11,2,0.00
2013-11-18,1.1,-0.7,-2.3,-2.0,-3.9,-6.0,87,86,85,30.37,30.21,1,0,2,0.00
2013-11-19,1.1,-2.7,-10.2,-2.0,-6.1,-14.0,87,85,83,30.21,30.14,0,0,1,0.00
2013-11-20,-9.1,-14.2,-18.0,-13.0,-18.2,-22.0,85,82,80,30.39,30.19,0,0,1,0.00
2013-11-21,8.4,-8.3,-18.4,1.0,-13.0,-23.0,85,80,70,30.35,29.62,5,0,8,0.00
2013-11-22,15.3,10.9,4.8,11.0,7.0,0.0,89,84,71,29.59,29.26,4,0,7,0.00
2013-11-23,17.6,6.6,1.2,8.0,2.2,-2.0,88,82,65,29.95,29.44,3,1,6,0.00
2013-11-24,23.6,19.0,16.3,16.0,12.6,8.0,91,76,65,30.04,29.95,2,0,3,0.00
2013-11-25,18.3,11.8,6.1,16.0,9.4,3.0,93,89,85,30.07,29.95,0,0,0,0.00
2013-11-26,10.7,7.2,1.6,7.0,3.7,-1.0,90,85,81,30.07,29.96,0,0,0,0.00
2013-11-27,4.8,1.7,-0.3,2.0,-1.3,-4.0,90,87,85,30.07,29.89,0,0,0,0.00
2013-11-28,0.3,-2.6,-4.7,-3.0,-5.9,-8.0,87,85,84,30.08,29.88,0,0,0,0.00
2013-11-29,-3.5,-6.3,-9.8,-7.0,-9.9,-14.0,86,84,82,30.38,30.08,0,0,0,0.00
2013-11-30,-6.4,-9.8,-14.5,-10.0,-13.7,-19.0,86,83,81,30.77,30.38,0,0,0,0.00
2013-12-1,-5.0,-10.0,-16.1,-9.0,-13.8,-21.0,85,83,80,30.82,30.77,0,0,0,0.00
2013-12-2,2.5,-1.3,-7.3,-1.0,-4.8,-11.0,87,85,83,30.81,30.73,0,0,0,0.00
2013-12-3,13.2,7.6,0.4,10.0,4.1,-3.0,89,85,80,30.76,30.59,0,0,0,0.00
2013-12-4,24.4,11.8,5.0,17.0,6.8,1.0,85,80,71,30.60,30.47,0,0,0,0.00
2013-12-5,24.9,19.7,13.9,18.0,14.1,11.0,89,79,66,30.49,30.42,0,0,0,0.00
2013-12-6,27.8,24.9,20.9,25.0,21.2,16.0,92,86,75,30.48,30.40,0,0,0,0.00
2013-12-7,32.6,27.8,23.8,30.0,24.8,19.0,94,88,80,30.41,30.28,0,0,0,0.00
2013-12-8,30.6,29.1,26.2,30.0,28.1,25.0,97,96,93,30.36,30.21,0,0,0,0.00
2013-12-9,29.5,26.7,23.2,29.0,25.8,22.0,97,96,94,30.24,30.12,0,0,0,0.00
2013-12-10,23.2,11.1,5.5,22.0,6.9,-2.0,94,83,70,30.38,30.13,0,0,0,0.00
2013-12-11,6.7,4.0,0.5,-2.0,-6.8,-10.0,70,61,55,30.36,30.09,21,4,30,0.00
2013-12-12,2.4,-1.0,-3.4,-9.0,-12.1,-15.0,73,60,56,30.09,29.89,25,14,33,0.00
2013-12-13,-1.1,-3.6,-6.0,-10.0,-12.7,-14.0,68,65,59,29.88,29.34,15,2,21,0.00
2013-12-14,2.5,-1.3,-5.5,-2.0,-5.7,-11.0,86,82,66,29.41,29.23,3,0,6,0.00
2013-12-15,-5.3,-10.0,-15.5,-9.0,-14.3,-20.0,84,81,79,30.24,29.42,2,0,2,0.00
2013-12-16,-15.4,-18.7,-22.1,-20.0,-23.0,-27.0,82,80,79,30.43,30.24,1,0,1,0.00
2013-12-17,-7.2,-14.8,-22.9,-11.0,-19.1,-28.0,84,81,78,30.46,30.43,1,0,2,0.00
2013-12-18,4.9,-0.8,-6.8,1.0,-4.6,-11.0,90,84,76,30.44,29.87,1,0,4,0.00
2013-12-19,7.7,5.1,1.7,4.0,1.2,-2.0,89,84,78,29.87,29.78,0,0,1,0.00
2013-12-20,9.4,7.0,4.3,3.0,1.3,0.0,84,77,71,29.82,29.68,2,0,3,0.00
2013-12-21,12.7,10.6,7.0,10.0,7.5,2.0,92,87,77,29.73,29.62,1,0,3,0.00
2013-12-22,12.5,9.5,5.4,10.0,7.0,2.0,92,89,86,29.83,29.56,0,0,0,0.00
2013-12-23,5.1,1.0,-2.1,2.0,-2.2,-6.0,88,86,84,30.23,29.84,7,0,8,0.00
2013-12-24,0.3,-3.7,-9.0,-3.0,-7.0,-13.0,88,86,83,30.26,30.05,2,0,2,0.00
2013-12-25,-6.9,-13.8,-20.4,-10.0,-17.6,-25.0,86,83,80,30.09,30.02,0,0,0,0.00
2013-12-26,-12.9,-16.1,-23.4,-17.0,-20.2,-28.0,83,82,78,30.18,30.08,0,0,0,0.00
2013-12-27,-7.3,-12.7,-15.7,-12.0,-16.9,-20.0,83,81,78,30.23,30.17,0,0,0,0.00
2013-12-28,5.7,1.5,-7.4,3.0,-2.8,-12.0,87,82,76,30.21,30.08,0,0,1,0.00
2013-12-29,6.5,4.1,1.9,4.0,1.2,-1.0,90,87,84,30.15,29.96,1,0,2,0.00
2013-12-30,8.5,5.5,3.3,5.0,2.0,0.0,88,85,79,29.96,29.74,1,0,3,0.00
2013-12-31,23.8,10.6,6.1,15.0,5.7,2.0,86,80,69,29.82,29.52,4,0,6,0.00
2014-1-1,27.3,21.5,13.2,20.0,16.3,11.0,93,81,64,29.52,29.29,5,1,10,0.00
2014-1-2,14.4,7.7,3.6,12.0,4.9,1.0,91,88,85,30.11,29.50,2,0,5,0.00